Time;durP1;ratioP1;P1;durP2;ratioP2;P2;SDS_P1;SDS_P2;PMS_P1;PMS_P2;Temp;Humidity;BMP_temperature;BMP_pressure;BME280_temperature;BME280_humidity;BME280_pressure;Samples;Min_cycle;Max_cycle;Signal;HPM_P1;HPM_P2
2022/07/01 00:00:38;;;;;;;;;;;;;;;7.49;69.17;95425.16;5041897;28;19969;-60
2022/07/01 00:03:03;;;;;;;;;;;;;;;7.57;69.18;95434.91;5041563;28;20000;-61
2022/07/01 00:05:29;;;;;;;;;;;;;;;7.32;70.57;95435.72;5040785;28;19976;-66
2022/07/01 00:07:54;;;;;;;;;;;;;;;7.65;69.54;95441.06;5041049;28;20519;-59
2022/07/01 00:10:19;;;;;;;;;;;;;;;7.62;70.37;95454.63;5040766;28;20471;-60
2022/07/01 00:12:45;;;;;;;;;;;;;;;7.19;71.31;95469.75;5040615;28;19984;-58
2022/07/01 00:15:10;;;;;;;;;;;;;;;7.33;71.80;95460.34;5040753;28;20019;-59
2022/07/01 00:17:35;;;;;;;;;;;;;;;7.61;71.43;95465.38;5040563;28;20352;-60
2022/07/01 00:20:01;;;;;;;;;;;;;;;7.84;69.51;95451.53;5041027;28;19976;-59
2022/07/01 00:22:27;;;;;;;;;;;;;;;7.42;71.08;95451.47;5040501;28;20327;-59
2022/07/01 00:24:53;;;;;;;;;;;;;;;7.38;71.12;95447.47;5040617;28;19989;-59
2022/07/01 00:27:18;;;;;;;;;;;;;;;7.18;71.15;95439.81;5040582;28;20123;-59
2022/07/01 00:29:43;;;;;;;;;;;;;;;7.34;70.22;95451.44;5039091;28;20495;-58
2022/07/01 00:32:09;;;;;;;;;;;;;;;7.46;70.36;95450.16;5040676;28;20210;-59
2022/07/01 00:34:34;;;;;;;;;;;;;;;7.43;70.30;95449.63;5040443;28;19987;-60
2022/07/01 00:37:00;;;;;;;;;;;;;;;7.70;68.61;95453.81;5040343;28;20035;-59
2022/07/01 00:39:25;;;;;;;;;;;;;;;7.96;68.25;95444.09;5039712;28;19997;-58
2022/07/01 00:41:50;;;;;;;;;;;;;;;7.95;67.64;95443.25;5039854;28;20301;-58
2022/07/01 00:44:18;;;;;;;;;;;;;;;8.01;67.55;95441.75;5040977;28;20004;-57
2022/07/01 00:46:44;;;;;;;;;;;;;;;7.92;67.57;95443.59;5040674;28;19995;-59
2022/07/01 00:49:09;;;;;;;;;;;;;;;8.28;66.10;95443.25;5040540;28;19980;-58
2022/07/01 00:51:34;;;;;;;;;;;;;;;8.49;64.99;95452.50;5039990;28;19993;-59
2022/07/01 00:54:01;;;;;;;;;;;;;;;8.32;65.79;95458.84;5043112;28;20197;-58
2022/07/01 00:56:26;;;;;;;;;;;;;;;8.17;66.01;95467.47;5042764;28;19973;-59
2022/07/01 00:58:51;;;;;;;;;;;;;;;8.15;66.48;95469.44;5042434;28;20084;-59
2022/07/01 01:01:17;;;;;;;;;;;;;;;8.54;65.33;95476.69;5044353;28;20165;-58
2022/07/01 01:03:42;;;;;;;;;;;;;;;8.39;65.38;95483.66;5043747;28;20302;-58
2022/07/01 01:06:08;;;;;;;;;;;;;;;9.03;63.22;95479.41;5043905;28;19986;-59
2022/07/01 01:08:33;;;;;;;;;;;;;;;8.69;64.29;95463.56;5042051;28;19973;-58
2022/07/01 01:10:58;;;;;;;;;;;;;;;9.01;63.13;95466.31;5043515;28;19999;-59
2022/07/01 01:13:23;;;;;;;;;;;;;;;9.32;62.13;95464.69;5043596;28;20226;-59
2022/07/01 01:15:49;;;;;;;;;;;;;;;9.01;62.42;95461.00;5044179;28;20350;-59
2022/07/01 01:18:14;;;;;;;;;;;;;;;9.18;63.20;95467.06;5043096;28;20235;-58
2022/07/01 01:20:39;;;;;;;;;;;;;;;9.22;62.22;95464.91;5043085;28;19977;-59
2022/07/01 01:23:04;;;;;;;;;;;;;;;9.58;61.86;95468.88;5042434;28;19995;-59
2022/07/01 01:25:33;;;;;;;;;;;;;;;9.96;60.39;95465.44;5043331;28;20232;-60
2022/07/01 01:27:58;;;;;;;;;;;;;;;9.60;61.50;95490.78;5040027;28;20372;-59
2022/07/01 01:30:24;;;;;;;;;;;;;;;9.63;59.98;95486.94;5040580;28;20591;-60
2022/07/01 01:32:49;;;;;;;;;;;;;;;10.04;60.00;95489.34;5043556;28;19973;-63
2022/07/01 01:35:15;;;;;;;;;;;;;;;9.86;59.61;95497.59;5043389;28;20236;-60
2022/07/01 01:37:40;;;;;;;;;;;;;;;9.64;59.81;95509.88;5043415;28;20087;-60
2022/07/01 01:40:06;;;;;;;;;;;;;;;9.04;61.94;95505.81;5043591;28;20023;-61
2022/07/01 01:42:31;;;;;;;;;;;;;;;9.57;60.55;95505.25;5043158;28;20000;-61
2022/07/01 01:44:56;;;;;;;;;;;;;;;9.03;62.25;95505.97;5041459;28;19997;-59
2022/07/01 01:47:22;;;;;;;;;;;;;;;8.70;62.91;95512.16;5042837;28;19989;-60
2022/07/01 01:49:47;;;;;;;;;;;;;;;8.44;63.75;95527.28;5042587;28;20031;-59
2022/07/01 01:52:12;;;;;;;;;;;;;;;8.46;64.42;95526.31;5042930;28;20422;-59
2022/07/01 01:54:37;;;;;;;;;;;;;;;8.54;63.99;95526.28;5042571;28;19989;-59
2022/07/01 01:57:03;;;;;;;;;;;;;;;8.59;63.64;95531.91;5042123;28;19965;-59
2022/07/01 01:59:28;;;;;;;;;;;;;;;8.76;63.45;95538.03;5042392;28;20088;-59
2022/07/01 02:01:54;;;;;;;;;;;;;;;8.93;62.48;95543.31;5042291;28;20171;-59
2022/07/01 02:04:19;;;;;;;;;;;;;;;9.27;60.97;95541.41;5042041;28;20532;-60
2022/07/01 02:06:45;;;;;;;;;;;;;;;9.56;60.10;95538.13;5042636;28;19989;-61
2022/07/01 02:09:10;;;;;;;;;;;;;;;9.54;59.78;95537.50;5042814;28;19977;-61
2022/07/01 02:11:35;;;;;;;;;;;;;;;9.57;59.66;95545.13;5042258;28;20490;-60
2022/07/01 02:14:00;;;;;;;;;;;;;;;9.91;58.93;95544.94;5041928;28;20158;-60
2022/07/01 02:16:26;;;;;;;;;;;;;;;10.26;57.85;95552.56;5042729;28;19996;-60
2022/07/01 02:18:52;;;;;;;;;;;;;;;10.61;56.61;95553.78;5042378;28;20080;-60
2022/07/01 02:21:17;;;;;;;;;;;;;;;10.67;56.49;95551.41;5042440;28;20285;-61
2022/07/01 02:23:42;;;;;;;;;;;;;;;10.47;56.57;95552.72;5042473;28;19993;-61
2022/07/01 02:26:07;;;;;;;;;;;;;;;10.14;57.39;95554.81;5042513;28;20477;-61
2022/07/01 02:28:33;;;;;;;;;;;;;;;10.16;56.92;95558.13;5042819;28;19969;-60
2022/07/01 02:30:58;;;;;;;;;;;;;;;10.74;55.88;95553.16;5042860;28;20177;-61
2022/07/01 02:33:23;;;;;;;;;;;;;;;10.97;54.46;95551.44;5042265;28;20096;-61
2022/07/01 02:35:48;;;;;;;;;;;;;;;11.05;54.29;95563.88;5041828;28;20001;-61
2022/07/01 02:38:14;;;;;;;;;;;;;;;10.92;54.85;95560.00;5041473;28;20462;-61
2022/07/01 02:40:39;;;;;;;;;;;;;;;11.00;54.13;95572.41;5042324;28;19973;-61
2022/07/01 02:43:08;;;;;;;;;;;;;;;11.05;54.33;95574.53;5039338;28;19998;-61
2022/07/01 02:45:33;;;;;;;;;;;;;;;10.12;56.79;95578.09;5041359;28;19984;-61
2022/07/01 02:47:58;;;;;;;;;;;;;;;9.77;58.41;95581.09;5041189;28;20446;-61
2022/07/01 02:50:24;;;;;;;;;;;;;;;10.12;57.36;95586.91;5040106;28;20066;-62
2022/07/01 02:52:49;;;;;;;;;;;;;;;9.82;58.03;95594.66;5040960;28;20159;-59
2022/07/01 02:55:14;;;;;;;;;;;;;;;9.43;59.76;95583.06;5039912;28;20050;-58
2022/07/01 02:57:40;;;;;;;;;;;;;;;9.15;60.19;95581.63;5040131;28;19976;-59
2022/07/01 03:00:05;;;;;;;;;;;;;;;9.21;60.30;95590.75;5038446;28;20343;-58
2022/07/01 03:02:31;;;;;;;;;;;;;;;8.41;63.46;95595.78;5041701;28;20343;-59
2022/07/01 03:04:56;;;;;;;;;;;;;;;8.33;63.81;95590.47;5041382;28;20524;-59
2022/07/01 03:07:21;;;;;;;;;;;;;;;8.33;64.06;95587.81;5041689;28;19996;-64
2022/07/01 03:09:47;;;;;;;;;;;;;;;8.12;64.50;95578.47;5041357;28;20509;-59
2022/07/01 03:12:24;;;;;;;;;;;;;;;8.86;62.83;95576.84;5041145;28;19972;-60
2022/07/01 03:15:16;;;;;;;;;;;;;;;8.81;62.87;95570.22;5040622;28;20084;-60
2022/07/01 03:17:42;;;;;;;;;;;;;;;8.74;62.62;95569.22;5038378;28;19973;-60
2022/07/01 03:20:08;;;;;;;;;;;;;;;8.87;61.90;95566.06;5041726;28;20389;-61
2022/07/01 03:22:34;;;;;;;;;;;;;;;8.90;61.86;95567.53;5040375;28;20020;-60
2022/07/01 03:24:59;;;;;;;;;;;;;;;8.86;62.01;95560.91;5038794;28;20506;-61
2022/07/01 03:27:24;;;;;;;;;;;;;;;8.20;63.29;95569.72;5038653;28;19993;-59
2022/07/01 03:29:50;;;;;;;;;;;;;;;8.11;63.93;95552.97;5039447;28;19993;-58
2022/07/01 03:32:15;;;;;;;;;;;;;;;8.05;64.62;95547.34;5039516;28;20002;-59
2022/07/01 03:34:41;;;;;;;;;;;;;;;8.65;63.03;95527.75;5038578;28;20032;-59
2022/07/01 03:37:06;;;;;;;;;;;;;;;8.68;62.75;95525.59;5037355;28;20019;-59
2022/07/01 03:39:32;;;;;;;;;;;;;;;8.49;63.16;95513.53;5040704;28;20004;-59
2022/07/01 03:41:57;;;;;;;;;;;;;;;8.98;61.82;95532.22;5035980;28;19989;-59
2022/07/01 03:44:22;;;;;;;;;;;;;;;8.59;62.00;95534.56;5040391;28;19991;-58
2022/07/01 03:46:47;;;;;;;;;;;;;;;8.53;62.48;95533.41;5040160;28;20613;-59
2022/07/01 03:49:12;;;;;;;;;;;;;;;8.66;62.71;95532.06;5040960;28;20337;-59
2022/07/01 03:51:38;;;;;;;;;;;;;;;9.08;61.41;95532.88;5040865;28;20334;-59
2022/07/01 03:56:47;;;;;;;;;;;;;;;8.66;61.83;95550.66;5041267;28;19980;-59
2022/07/01 03:59:12;;;;;;;;;;;;;;;8.32;61.67;95560.44;5040796;28;19993;-59
2022/07/01 04:01:37;;;;;;;;;;;;;;;7.16;65.93;95560.94;5039886;28;19969;-58
2022/07/01 04:04:03;;;;;;;;;;;;;;;7.38;66.22;95551.59;5039956;28;20016;-59
2022/07/01 04:06:28;;;;;;;;;;;;;;;7.57;65.84;95552.31;5039942;28;20027;-59
2022/07/01 04:08:53;;;;;;;;;;;;;;;7.75;65.30;95551.41;5040591;28;20000;-58
2022/07/01 04:11:18;;;;;;;;;;;;;;;7.98;64.36;95537.53;5040000;28;19996;-59
2022/07/01 04:13:49;;;;;;;;;;;;;;;8.46;62.46;95537.72;5040409;28;20050;-59
2022/07/01 04:16:15;;;;;;;;;;;;;;;8.50;63.20;95541.69;5040087;28;19962;-59
2022/07/01 04:18:41;;;;;;;;;;;;;;;8.05;64.30;95554.44;5021982;28;20488;-59
2022/07/01 04:23:50;;;;;;;;;;;;;;;7.84;65.30;95557.56;5039011;28;20043;-59
2022/07/01 04:26:16;;;;;;;;;;;;;;;8.39;64.49;95552.66;5039657;28;20451;-59
2022/07/01 04:28:41;;;;;;;;;;;;;;;8.32;62.85;95546.38;5043425;28;19983;-59
2022/07/01 04:31:07;;;;;;;;;;;;;;;8.91;61.36;95543.47;5043741;28;20059;-59
2022/07/01 04:33:32;;;;;;;;;;;;;;;9.08;61.29;95533.69;5043019;28;19980;-59
2022/07/01 04:35:57;;;;;;;;;;;;;;;9.26;60.01;95539.75;5043336;28;19991;-59
2022/07/01 04:38:22;;;;;;;;;;;;;;;9.06;60.71;95541.00;5042908;28;20206;-59
2022/07/01 04:43:32;;;;;;;;;;;;;;;9.51;58.97;95552.94;5043327;28;20466;-58
2022/07/01 04:45:57;;;;;;;;;;;;;;;8.84;60.96;95547.00;5043376;28;20068;-58
2022/07/01 04:48:22;;;;;;;;;;;;;;;9.09;60.24;95542.47;5044376;28;20336;-59
2022/07/01 04:50:47;;;;;;;;;;;;;;;8.81;61.01;95553.47;5043067;28;19989;-58
2022/07/01 04:53:13;;;;;;;;;;;;;;;8.89;61.69;95537.53;5042225;28;20140;-59
2022/07/01 04:55:38;;;;;;;;;;;;;;;8.56;62.49;95517.16;5038887;28;20130;-58
2022/07/01 04:58:03;;;;;;;;;;;;;;;8.49;62.55;95518.81;5039783;28;19992;-59
2022/07/01 05:00:29;;;;;;;;;;;;;;;8.15;63.47;95528.63;5040982;28;19977;-59
2022/07/01 05:02:54;;;;;;;;;;;;;;;8.37;63.82;95554.66;5042108;28;19997;-59
2022/07/01 05:05:20;;;;;;;;;;;;;;;8.68;61.92;95548.66;5042837;28;19993;-58
2022/07/01 05:07:45;;;;;;;;;;;;;;;8.46;62.26;95548.34;5042733;28;19989;-58
2022/07/01 05:10:10;;;;;;;;;;;;;;;8.77;61.73;95558.28;5042771;28;19989;-59
2022/07/01 05:12:35;;;;;;;;;;;;;;;9.13;60.63;95562.38;5042158;28;19977;-60
2022/07/01 05:15:00;;;;;;;;;;;;;;;9.59;59.42;95582.16;5042175;28;20454;-59
2022/07/01 05:21:55;;;;;;;;;;;;;;;9.41;59.67;95596.50;5041991;28;20456;-59
2022/07/01 05:22:55;;;;;;;;;;;;;;;9.03;59.64;95621.00;5040948;28;20035;-59
2022/07/01 05:25:20;;;;;;;;;;;;;;;9.32;59.46;95627.56;5038994;28;20028;-60
2022/07/01 05:27:45;;;;;;;;;;;;;;;9.52;58.75;95623.72;5040862;28;20582;-60
2022/07/01 05:30:11;;;;;;;;;;;;;;;9.97;57.11;95608.88;5042027;28;20024;-60
2022/07/01 05:32:36;;;;;;;;;;;;;;;9.85;57.08;95613.78;5042685;28;20000;-60
2022/07/01 05:35:01;;;;;;;;;;;;;;;9.57;58.45;95614.22;5039952;28;20146;-61
2022/07/01 05:37:27;;;;;;;;;;;;;;;9.26;58.90;95612.34;5042719;28;19997;-58
2022/07/01 05:39:52;;;;;;;;;;;;;;;9.40;58.58;95615.28;5040930;28;20035;-60
2022/07/01 05:42:17;;;;;;;;;;;;;;;9.13;59.00;95625.28;5040895;28;20176;-59
2022/07/01 05:44:42;;;;;;;;;;;;;;;8.96;59.24;95620.00;5040803;28;20408;-60
2022/07/01 05:47:09;;;;;;;;;;;;;;;8.94;58.67;95616.66;5041563;28;19997;-60
2022/07/01 05:49:34;;;;;;;;;;;;;;;8.83;59.27;95633.75;5040490;28;20362;-59
2022/07/01 05:51:59;;;;;;;;;;;;;;;9.34;58.32;95632.72;5041955;28;20079;-59
2022/07/01 05:54:25;;;;;;;;;;;;;;;9.57;57.38;95640.81;5041265;28;20516;-59
2022/07/01 05:56:50;;;;;;;;;;;;;;;9.20;58.41;95636.91;5039831;28;19975;-58
2022/07/01 05:59:15;;;;;;;;;;;;;;;9.04;58.86;95640.41;5038061;28;20246;-58
2022/07/01 06:01:41;;;;;;;;;;;;;;;9.03;58.92;95649.38;5041344;28;20083;-59
2022/07/01 06:04:06;;;;;;;;;;;;;;;9.50;57.90;95646.97;5040889;28;20389;-58
2022/07/01 06:06:31;;;;;;;;;;;;;;;9.87;56.52;95647.34;5042516;28;20054;-58
2022/07/01 06:08:56;;;;;;;;;;;;;;;10.01;55.97;95659.06;5040572;28;20091;-59
2022/07/01 06:11:22;;;;;;;;;;;;;;;10.10;55.13;95658.91;5041428;28;20101;-59
2022/07/01 06:13:47;;;;;;;;;;;;;;;10.23;54.54;95644.19;5040087;28;20005;-58
2022/07/01 06:16:12;;;;;;;;;;;;;;;10.19;54.89;95640.22;5041465;28;19977;-59
2022/07/01 06:18:37;;;;;;;;;;;;;;;10.18;54.51;95651.88;5041815;28;20102;-59
2022/07/01 06:21:02;;;;;;;;;;;;;;;9.54;56.86;95653.59;5041038;28;20543;-58
2022/07/01 06:23:28;;;;;;;;;;;;;;;9.97;56.06;95669.25;5040233;28;20228;-59
2022/07/01 06:25:54;;;;;;;;;;;;;;;10.22;55.45;95671.81;5039966;28;20192;-58
2022/07/01 06:28:19;;;;;;;;;;;;;;;10.57;54.31;95663.47;5041428;28;20609;-60
2022/07/01 06:30:45;;;;;;;;;;;;;;;10.95;53.47;95665.34;5041277;28;20001;-61
2022/07/01 06:33:11;;;;;;;;;;;;;;;10.69;53.33;95671.88;5037491;28;20597;-61
2022/07/01 06:35:36;;;;;;;;;;;;;;;10.39;53.79;95671.72;5039356;28;20388;-61
2022/07/01 06:38:02;;;;;;;;;;;;;;;9.66;55.98;95681.47;5036379;28;19996;-61
2022/07/01 06:40:27;;;;;;;;;;;;;;;9.79;57.01;95666.84;5037345;28;20446;-59
2022/07/01 06:42:53;;;;;;;;;;;;;;;9.52;56.92;95660.94;5036048;28;20945;-59
2022/07/01 06:45:18;;;;;;;;;;;;;;;10.06;55.89;95667.38;5034242;28;20065;-60
2022/07/01 06:47:45;;;;;;;;;;;;;;;10.50;55.06;95666.00;5029501;28;21281;-59
2022/07/01 06:50:11;;;;;;;;;;;;;;;11.15;52.77;95671.00;5034920;28;20047;-60
2022/07/01 06:52:37;;;;;;;;;;;;;;;11.13;52.90;95662.41;5036236;28;19977;-59
2022/07/01 06:55:02;;;;;;;;;;;;;;;11.25;51.95;95668.94;5036698;28;20096;-60
2022/07/01 06:57:27;;;;;;;;;;;;;;;10.92;52.97;95666.53;5035710;28;19981;-59
2022/07/01 06:59:52;;;;;;;;;;;;;;;10.64;53.73;95664.41;5035974;28;20079;-59
2022/07/01 07:02:18;;;;;;;;;;;;;;;11.42;51.84;95667.97;5036870;28;20350;-59
2022/07/01 07:04:43;;;;;;;;;;;;;;;11.69;51.14;95676.34;5036053;28;19997;-59
2022/07/01 07:07:08;;;;;;;;;;;;;;;11.35;50.77;95682.00;5036400;28;19985;-59
2022/07/01 07:09:34;;;;;;;;;;;;;;;11.70;50.73;95678.00;5033193;28;20016;-58
2022/07/01 07:11:59;;;;;;;;;;;;;;;11.71;50.86;95663.66;5037179;28;19965;-59
2022/07/01 07:14:24;;;;;;;;;;;;;;;11.83;50.03;95656.81;5036734;28;20084;-60
2022/07/01 07:16:51;;;;;;;;;;;;;;;12.08;49.84;95659.25;5036949;28;20309;-59
2022/07/01 07:19:16;;;;;;;;;;;;;;;12.14;49.97;95649.66;5034000;28;20452;-60
2022/07/01 07:21:41;;;;;;;;;;;;;;;12.26;49.88;95652.66;5035699;28;20054;-59
2022/07/01 07:24:07;;;;;;;;;;;;;;;12.23;49.82;95647.69;5036556;28;19993;-58
2022/07/01 07:26:32;;;;;;;;;;;;;;;12.17;49.60;95667.94;5036832;28;20377;-58
2022/07/01 07:28:57;;;;;;;;;;;;;;;12.02;49.89;95670.63;5034852;28;20012;-59
2022/07/01 07:31:22;;;;;;;;;;;;;;;11.83;50.41;95685.38;5037666;28;20088;-58
2022/07/01 07:33:48;;;;;;;;;;;;;;;11.88;50.53;95696.28;5036279;28;20544;-59
2022/07/01 07:36:13;;;;;;;;;;;;;;;11.80;50.55;95710.53;5036728;28;20070;-58
2022/07/01 07:38:39;;;;;;;;;;;;;;;11.52;51.40;95733.31;5034747;28;20249;-59
2022/07/01 07:41:04;;;;;;;;;;;;;;;11.37;51.96;95746.63;5038537;28;20076;-59
2022/07/01 07:43:30;;;;;;;;;;;;;;;11.37;51.13;95735.97;5034934;28;20484;-59
2022/07/01 07:45:55;;;;;;;;;;;;;;;11.43;51.47;95739.75;5034233;28;20190;-59
2022/07/01 07:48:20;;;;;;;;;;;;;;;11.19;51.62;95735.47;5037294;28;20173;-58
2022/07/01 07:50:47;;;;;;;;;;;;;;;10.78;53.09;95740.03;5035847;28;19997;-58
2022/07/01 07:53:12;;;;;;;;;;;;;;;11.22;51.72;95745.75;5037242;28;19977;-59
2022/07/01 07:55:37;;;;;;;;;;;;;;;11.29;51.73;95757.34;5035515;28;20497;-58
2022/07/01 07:58:04;;;;;;;;;;;;;;;11.48;51.10;95740.03;5033527;28;20517;-59
2022/07/01 08:00:29;;;;;;;;;;;;;;;11.94;50.28;95740.91;5036241;28;20472;-60
2022/07/01 08:02:54;;;;;;;;;;;;;;;11.50;50.88;95754.00;5039282;28;20028;-59
2022/07/01 08:05:20;;;;;;;;;;;;;;;11.53;50.74;95758.16;5039039;28;19989;-59
2022/07/01 08:07:45;;;;;;;;;;;;;;;11.70;50.04;95752.66;5038209;28;19989;-59
2022/07/01 08:10:11;;;;;;;;;;;;;;;11.53;51.06;95766.16;5040464;28;20016;-60
2022/07/01 08:12:36;;;;;;;;;;;;;;;11.75;50.13;95761.78;5041929;28;19973;-59
2022/07/01 08:15:02;;;;;;;;;;;;;;;11.54;50.64;95767.81;5041057;28;20000;-59
2022/07/01 08:17:27;;;;;;;;;;;;;;;12.07;49.61;95758.16;5040727;28;19977;-59
2022/07/01 08:19:52;;;;;;;;;;;;;;;12.03;48.92;95757.66;5037929;28;20076;-60
2022/07/01 08:22:17;;;;;;;;;;;;;;;12.06;48.87;95770.66;5036688;28;20050;-60
2022/07/01 08:24:43;;;;;;;;;;;;;;;12.22;49.32;95780.34;5041717;28;20483;-59
2022/07/01 08:27:08;;;;;;;;;;;;;;;11.94;49.63;95775.59;5040723;28;19997;-59
2022/07/01 08:29:33;;;;;;;;;;;;;;;11.76;50.14;95778.59;5041749;28;19977;-59
2022/07/01 08:31:58;;;;;;;;;;;;;;;11.95;48.87;95784.41;5042326;28;20578;-59
2022/07/01 08:34:24;;;;;;;;;;;;;;;11.48;50.12;95788.03;5040871;28;20481;-59
2022/07/01 08:36:49;;;;;;;;;;;;;;;11.38;50.77;95776.75;5038488;28;20413;-58
2022/07/01 08:39:14;;;;;;;;;;;;;;;11.66;50.41;95775.38;5040163;28;20028;-59
2022/07/01 08:41:40;;;;;;;;;;;;;;;11.57;50.35;95762.13;5037609;28;20023;-59
2022/07/01 08:44:05;;;;;;;;;;;;;;;11.66;49.47;95752.19;5038116;28;19999;-59
2022/07/01 08:46:31;;;;;;;;;;;;;;;11.54;49.83;95742.97;5039374;28;20381;-59
2022/07/01 08:48:56;;;;;;;;;;;;;;;11.96;49.59;95746.88;5040546;28;20072;-58
2022/07/01 08:51:21;;;;;;;;;;;;;;;12.07;48.22;95748.28;5039986;28;20087;-59
2022/07/01 08:53:46;;;;;;;;;;;;;;;12.67;47.11;95740.22;5038146;28;20023;-59
2022/07/01 08:58:56;;;;;;;;;;;;;;;13.36;44.91;95745.22;5039520;28;20071;-59
2022/07/01 09:01:21;;;;;;;;;;;;;;;12.83;45.80;95751.69;5040416;28;20068;-59
2022/07/01 09:03:47;;;;;;;;;;;;;;;13.17;45.61;95766.25;5041096;28;20151;-59
2022/07/01 09:06:16;;;;;;;;;;;;;;;12.59;46.78;95779.56;5038137;28;19993;-60
2022/07/01 09:08:42;;;;;;;;;;;;;;;12.78;46.34;95775.44;5038943;28;19977;-59
2022/07/01 09:11:14;;;;;;;;;;;;;;;13.25;45.79;95764.44;5036688;28;19993;-59
2022/07/01 09:13:40;;;;;;;;;;;;;;;13.73;44.54;95734.38;5038226;28;20201;-59
2022/07/01 09:16:12;;;;;;;;;;;;;;;13.83;44.47;95724.16;5036716;28;19986;-58
2022/07/01 09:18:37;;;;;;;;;;;;;;;14.08;43.48;95736.28;5036228;28;20712;-59
2022/07/01 09:21:07;;;;;;;;;;;;;;;13.96;43.81;95744.03;5038769;28;20079;-58
2022/07/01 09:23:33;;;;;;;;;;;;;;;14.26;43.29;95748.31;5035928;28;19993;-59
2022/07/01 09:25:58;;;;;;;;;;;;;;;13.53;43.38;95744.97;5039364;28;19989;-58
2022/07/01 09:28:24;;;;;;;;;;;;;;;12.28;46.10;95752.88;5037640;28;20019;-59
2022/07/01 09:30:50;;;;;;;;;;;;;;;12.21;46.89;95765.31;5036894;28;19996;-59
2022/07/01 09:33:16;;;;;;;;;;;;;;;11.55;48.43;95788.13;5039183;28;20064;-58
2022/07/01 09:35:42;;;;;;;;;;;;;;;11.73;49.06;95798.47;5038686;28;19989;-58
2022/07/01 09:38:07;;;;;;;;;;;;;;;11.94;48.15;95796.09;5037238;28;20008;-58
2022/07/01 09:40:45;;;;;;;;;;;;;;;12.50;46.49;95786.84;5037232;28;19969;-59
2022/07/01 09:43:37;;;;;;;;;;;;;;;12.63;46.53;95784.34;5038848;28;20395;-58
2022/07/01 09:46:07;;;;;;;;;;;;;;;13.02;43.83;95787.66;5036430;28;20017;-59
2022/07/01 09:48:32;;;;;;;;;;;;;;;12.89;44.55;95791.00;5033669;28;19973;-58
2022/07/01 09:50:57;;;;;;;;;;;;;;;13.56;42.83;95795.38;5036700;28;19989;-59
2022/07/01 09:53:23;;;;;;;;;;;;;;;13.40;43.66;95788.47;5038703;28;19979;-59
2022/07/01 09:55:48;;;;;;;;;;;;;;;14.31;41.35;95778.03;5039290;28;20209;-58
2022/07/01 09:58:13;;;;;;;;;;;;;;;14.84;40.03;95779.28;5036046;28;19992;-58
2022/07/01 10:00:39;;;;;;;;;;;;;;;14.98;39.12;95783.66;5038255;28;20482;-58
2022/07/01 10:03:05;;;;;;;;;;;;;;;15.21;38.06;95781.66;5037335;28;19989;-59
2022/07/01 10:05:31;;;;;;;;;;;;;;;14.63;39.06;95782.88;5039599;28;19989;-58
2022/07/01 10:08:35;;;;;;;;;;;;;;;14.72;40.37;95782.50;5034986;28;20277;-58
2022/07/01 10:11:13;;;;;;;;;;;;;;;14.45;39.31;95778.91;4999363;28;19997;-59
2022/07/01 10:13:41;;;;;;;;;;;;;;;14.23;40.28;95780.84;5019470;28;20406;-59
2022/07/01 10:16:06;;;;;;;;;;;;;;;15.03;39.65;95772.31;5021999;28;19973;-59
2022/07/01 10:18:31;;;;;;;;;;;;;;;15.07;38.05;95772.75;5037889;28;20688;-59
2022/07/01 10:20:57;;;;;;;;;;;;;;;15.67;37.63;95771.19;5039385;28;19993;-59
2022/07/01 10:23:24;;;;;;;;;;;;;;;15.93;37.01;95767.66;5038454;28;20060;-59
2022/07/01 10:25:54;;;;;;;;;;;;;;;15.69;36.96;95769.94;5037633;28;19996;-59
2022/07/01 10:28:24;;;;;;;;;;;;;;;16.43;36.93;95774.41;5035794;28;19964;-58
2022/07/01 10:30:53;;;;;;;;;;;;;;;16.92;35.82;95778.56;5036388;28;19992;-59
2022/07/01 10:33:34;;;;;;;;;;;;;;;16.74;34.67;95778.22;5037275;28;19972;-60
2022/07/01 10:36:03;;;;;;;;;;;;;;;17.08;36.38;95771.81;5037817;28;19995;-59
2022/07/01 10:38:28;;;;;;;;;;;;;;;17.22;35.84;95769.91;5037386;28;19996;-59
2022/07/01 10:40:53;;;;;;;;;;;;;;;17.06;35.77;95779.31;5037576;28;20453;-60
2022/07/01 10:43:32;;;;;;;;;;;;;;;16.37;36.17;95784.13;5035780;28;20611;-59
2022/07/01 10:45:57;;;;;;;;;;;;;;;16.85;37.54;95786.63;5037489;28;20465;-59
2022/07/01 10:48:23;;;;;;;;;;;;;;;15.33;37.06;95797.97;5037283;28;19969;-58
2022/07/01 10:50:48;;;;;;;;;;;;;;;15.60;37.63;95795.31;5034240;28;19988;-60
2022/07/01 10:53:14;;;;;;;;;;;;;;;15.15;38.78;95795.84;5036413;28;20076;-58
2022/07/01 10:55:40;;;;;;;;;;;;;;;14.83;40.45;95791.03;5036980;28;19996;-58
2022/07/01 10:58:05;;;;;;;;;;;;;;;14.98;38.56;95788.19;5035379;28;19999;-57
2022/07/01 11:00:32;;;;;;;;;;;;;;;14.43;40.65;95787.16;5035869;28;19969;-58
2022/07/01 11:03:07;;;;;;;;;;;;;;;14.88;40.61;95801.97;5034840;28;19997;-58
2022/07/01 11:05:32;;;;;;;;;;;;;;;13.56;42.08;95809.56;5035599;28;19988;-58
2022/07/01 11:07:57;;;;;;;;;;;;;;;13.57;39.82;95805.06;5018303;28;20428;-58
2022/07/01 11:10:22;;;;;;;;;;;;;;;14.39;39.93;95798.44;5031262;28;19996;-58
2022/07/01 11:12:49;;;;;;;;;;;;;;;14.68;39.49;95783.09;5036466;28;19976;-58
2022/07/01 11:15:15;;;;;;;;;;;;;;;14.83;38.18;95793.72;5036102;28;20000;-57
2022/07/01 11:17:44;;;;;;;;;;;;;;;15.55;36.52;95789.72;5034479;28;20281;-58
2022/07/01 11:20:09;;;;;;;;;;;;;;;14.55;38.59;95792.75;5033629;28;19969;-58
2022/07/01 11:22:34;;;;;;;;;;;;;;;15.33;37.61;95795.28;5036517;28;20001;-58
2022/07/01 11:25:00;;;;;;;;;;;;;;;15.13;37.73;95790.69;5035684;28;20428;-58
2022/07/01 11:27:26;;;;;;;;;;;;;;;15.62;37.49;95782.53;5034686;28;20000;-58
2022/07/01 11:29:52;;;;;;;;;;;;;;;15.58;37.68;95798.25;5034523;28;19993;-58
2022/07/01 11:32:44;;;;;;;;;;;;;;;16.74;35.03;95796.19;5038129;28;20595;-58
2022/07/01 11:41:00;;;;;;;;;;;;;;;15.81;33.93;95812.28;5038129;28;19979;-59
2022/07/01 11:43:35;;;;;;;;;;;;;;;15.82;35.24;95813.91;5033632;28;19993;-58
2022/07/01 11:46:01;;;;;;;;;;;;;;;15.52;35.05;95803.56;5035176;28;20375;-59
2022/07/01 11:48:40;;;;;;;;;;;;;;;15.06;34.90;95804.09;5038495;28;20075;-58
2022/07/01 11:51:06;;;;;;;;;;;;;;;16.45;33.01;95796.50;5037579;28;19988;-57
2022/07/01 11:53:31;;;;;;;;;;;;;;;16.68;33.32;95799.72;5035420;28;20067;-64
2022/07/01 11:55:57;;;;;;;;;;;;;;;16.38;33.71;95809.94;5035754;28;20552;-58
2022/07/01 11:58:22;;;;;;;;;;;;;;;16.75;34.09;95787.09;5035670;28;20032;-59
2022/07/01 12:00:48;;;;;;;;;;;;;;;17.17;32.89;95791.25;5033794;28;19975;-59
2022/07/01 12:03:14;;;;;;;;;;;;;;;17.94;32.33;95790.28;5035033;28;20468;-61
2022/07/01 12:05:39;;;;;;;;;;;;;;;17.84;32.64;95788.06;5034716;28;20000;-57
2022/07/01 12:08:04;;;;;;;;;;;;;;;18.11;32.71;95795.09;5032375;28;19966;-59
2022/07/01 12:10:29;;;;;;;;;;;;;;;18.31;30.45;95787.66;5038027;28;19996;-58
2022/07/01 12:12:54;;;;;;;;;;;;;;;18.21;30.42;95790.03;5037242;28;19966;-59
2022/07/01 12:15:20;;;;;;;;;;;;;;;18.93;28.53;95785.09;5031264;28;20016;-59
2022/07/01 12:17:45;;;;;;;;;;;;;;;18.78;28.55;95778.25;5034121;28;20438;-59
2022/07/01 12:20:10;;;;;;;;;;;;;;;18.91;28.48;95779.13;5035750;28;20337;-59
2022/07/01 12:22:36;;;;;;;;;;;;;;;19.37;27.60;95786.81;5034271;28;19983;-59
2022/07/01 12:25:05;;;;;;;;;;;;;;;19.56;29.03;95788.41;5036068;28;19988;-59
2022/07/01 12:27:32;;;;;;;;;;;;;;;19.84;27.85;95784.22;5036487;28;20235;-59
2022/07/01 12:29:58;;;;;;;;;;;;;;;20.93;27.82;95779.50;5037176;28;20022;-60
2022/07/01 12:32:24;;;;;;;;;;;;;;;21.03;27.68;95782.44;5033091;28;19961;-60
2022/07/01 12:34:56;;;;;;;;;;;;;;;21.11;26.30;95771.22;5035117;28;19973;-60
2022/07/01 12:37:28;;;;;;;;;;;;;;;21.46;25.83;95771.31;5034636;28;20082;-60
2022/07/01 12:39:57;;;;;;;;;;;;;;;20.63;25.55;95791.38;5035972;28;19979;-60
2022/07/01 12:42:33;;;;;;;;;;;;;;;19.55;29.96;95780.53;5036960;28;19993;-60
2022/07/01 12:44:59;;;;;;;;;;;;;;;19.33;29.83;95776.50;5035538;28;20484;-59
2022/07/01 12:47:25;;;;;;;;;;;;;;;19.24;29.78;95775.13;5036571;28;20021;-60
2022/07/01 12:49:50;;;;;;;;;;;;;;;18.56;29.10;95800.25;5038665;28;20105;-59
2022/07/01 12:52:25;;;;;;;;;;;;;;;19.01;28.59;95781.28;5038293;28;20064;-60
2022/07/01 12:54:50;;;;;;;;;;;;;;;18.60;29.92;95786.34;5034015;28;20049;-60
2022/07/01 12:57:16;;;;;;;;;;;;;;;18.81;28.60;95793.97;5039113;28;20478;-59
2022/07/01 12:59:41;;;;;;;;;;;;;;;19.39;28.23;95788.25;5037089;28;19992;-61
2022/07/01 13:02:06;;;;;;;;;;;;;;;20.06;28.22;95791.75;5039080;28;20033;-61
2022/07/01 13:04:32;;;;;;;;;;;;;;;20.60;27.10;95779.13;5037892;28;20008;-61